Airport ICAO


22:20 UTC

8°C

Clear skies


An affordable passengers' Moving Map for your aircraft. Made for the iPad and the iPhone
More information here

LFPV Velizy


Villacoublay FRANCE   VFR CAVOK


METAR LFPV 132200Z AUTO 18003KT CAVOK 08/07 Q1029 NOSIG 0h20min

TAF LFPV 132000Z 1321/1421 VRB03KT CAVOK BECMG 1400/1402 4000 BR BECMG 1402/1404 0500 FG BECMG 1408/1410 24006KT 6000 NSW BKN005 BECMG 1411/1413 SCT015 2h20min





NOTAMS

OPEN